sensor_id;sensor_type;location;lat;lon;timestamp;temperature;humidity
8888;DHT22;4480;52.370;9.748;2022-12-18T00:00:39;-4.70;99.90
8888;DHT22;4480;52.370;9.748;2022-12-18T00:03:06;-4.70;99.90
8888;DHT22;4480;52.370;9.748;2022-12-18T00:05:34;-4.70;99.90
8888;DHT22;4480;52.370;9.748;2022-12-18T00:08:01;-4.70;99.90
8888;DHT22;4480;52.370;9.748;2022-12-18T00:10:28;-4.70;99.90
8888;DHT22;4480;52.370;9.748;2022-12-18T00:12:55;-4.70;99.90
8888;DHT22;4480;52.370;9.748;2022-12-18T00:15:22;-4.70;99.90
8888;DHT22;4480;52.370;9.748;2022-12-18T00:17:49;-4.80;99.90
8888;DHT22;4480;52.370;9.748;2022-12-18T00:20:16;-4.70;99.90
8888;DHT22;4480;52.370;9.748;2022-12-18T00:22:48;-4.80;99.90
8888;DHT22;4480;52.370;9.748;2022-12-18T00:25:15;-4.80;99.90
8888;DHT22;4480;52.370;9.748;2022-12-18T00:27:41;-4.80;99.90
8888;DHT22;4480;52.370;9.748;2022-12-18T00:30:09;-4.80;99.90
8888;DHT22;4480;52.370;9.748;2022-12-18T00:32:36;-4.80;99.90
8888;DHT22;4480;52.370;9.748;2022-12-18T00:35:04;-4.80;99.90
8888;DHT22;4480;52.370;9.748;2022-12-18T00:37:33;-4.90;99.90
8888;DHT22;4480;52.370;9.748;2022-12-18T00:40:01;-4.90;99.90
8888;DHT22;4480;52.370;9.748;2022-12-18T00:42:28;-4.90;99.90
8888;DHT22;4480;52.370;9.748;2022-12-18T00:45:12;-5.00;99.90
8888;DHT22;4480;52.370;9.748;2022-12-18T00:47:39;-5.00;99.90
8888;DHT22;4480;52.370;9.748;2022-12-18T00:50:07;-5.00;99.90
8888;DHT22;4480;52.370;9.748;2022-12-18T00:52:34;-5.00;99.90
8888;DHT22;4480;52.370;9.748;2022-12-18T00:55:03;-5.10;99.90
8888;DHT22;4480;52.370;9.748;2022-12-18T00:57:29;-5.10;99.90
8888;DHT22;4480;52.370;9.748;2022-12-18T00:59:56;-5.10;99.90
8888;DHT22;4480;52.370;9.748;2022-12-18T01:02:23;-5.10;99.90
8888;DHT22;4480;52.370;9.748;2022-12-18T01:04:50;-5.10;99.90
8888;DHT22;4480;52.370;9.748;2022-12-18T01:07:16;-5.10;99.90
8888;DHT22;4480;52.370;9.748;2022-12-18T01:09:43;-5.10;99.90
8888;DHT22;4480;52.370;9.748;2022-12-18T01:12:11;-5.10;99.90
8888;DHT22;4480;52.370;9.748;2022-12-18T01:14:38;-5.10;99.90
8888;DHT22;4480;52.370;9.748;2022-12-18T01:17:05;-5.10;99.90
8888;DHT22;4480;52.370;9.748;2022-12-18T01:19:31;-5.10;99.90
8888;DHT22;4480;52.370;9.748;2022-12-18T01:21:58;-5.10;99.90
8888;DHT22;4480;52.370;9.748;2022-12-18T01:24:25;-5.00;99.90
8888;DHT22;4480;52.370;9.748;2022-12-18T01:26:52;-5.10;99.90
8888;DHT22;4480;52.370;9.748;2022-12-18T01:29:20;-5.00;99.90
8888;DHT22;4480;52.370;9.748;2022-12-18T01:31:46;-5.00;99.90
8888;DHT22;4480;52.370;9.748;2022-12-18T01:34:13;-5.00;99.90
8888;DHT22;4480;52.370;9.748;2022-12-18T01:36:40;-5.00;99.90
8888;DHT22;4480;52.370;9.748;2022-12-18T01:39:11;-5.00;99.90
8888;DHT22;4480;52.370;9.748;2022-12-18T01:41:38;-5.00;99.90
8888;DHT22;4480;52.370;9.748;2022-12-18T01:47:34;-5.00;99.90
8888;DHT22;4480;52.370;9.748;2022-12-18T01:50:05;-5.00;99.90
8888;DHT22;4480;52.370;9.748;2022-12-18T01:52:33;-5.10;99.90
8888;DHT22;4480;52.370;9.748;2022-12-18T01:55:02;-5.10;99.90
8888;DHT22;4480;52.370;9.748;2022-12-18T01:57:29;-5.10;99.90
8888;DHT22;4480;52.370;9.748;2022-12-18T02:00:00;-5.10;99.90
8888;DHT22;4480;52.370;9.748;2022-12-18T02:02:28;-5.20;99.90
8888;DHT22;4480;52.370;9.748;2022-12-18T02:04:57;-5.20;99.90
8888;DHT22;4480;52.370;9.748;2022-12-18T02:07:30;-5.20;99.90
8888;DHT22;4480;52.370;9.748;2022-12-18T02:10:02;-5.20;99.90
8888;DHT22;4480;52.370;9.748;2022-12-18T02:12:36;-5.20;99.90
8888;DHT22;4480;52.370;9.748;2022-12-18T02:15:13;-5.20;99.90
8888;DHT22;4480;52.370;9.748;2022-12-18T02:17:45;-5.20;99.90
8888;DHT22;4480;52.370;9.748;2022-12-18T02:20:19;-5.30;99.90
8888;DHT22;4480;52.370;9.748;2022-12-18T02:22:58;-5.30;99.90
8888;DHT22;4480;52.370;9.748;2022-12-18T02:25:51;-5.30;99.90
8888;DHT22;4480;52.370;9.748;2022-12-18T02:28:21;-5.30;99.90
8888;DHT22;4480;52.370;9.748;2022-12-18T02:30:52;-5.30;99.90
8888;DHT22;4480;52.370;9.748;2022-12-18T02:33:20;-5.30;99.90
8888;DHT22;4480;52.370;9.748;2022-12-18T02:35:49;-5.40;99.90
8888;DHT22;4480;52.370;9.748;2022-12-18T02:38:18;-5.30;99.90
8888;DHT22;4480;52.370;9.748;2022-12-18T02:40:46;-5.30;99.90
8888;DHT22;4480;52.370;9.748;2022-12-18T02:43:15;-5.30;99.90
8888;DHT22;4480;52.370;9.748;2022-12-18T02:45:47;-5.30;99.90
8888;DHT22;4480;52.370;9.748;2022-12-18T02:48:14;-5.40;99.90
8888;DHT22;4480;52.370;9.748;2022-12-18T02:50:46;-5.40;99.90
8888;DHT22;4480;52.370;9.748;2022-12-18T02:53:19;-5.40;99.90
8888;DHT22;4480;52.370;9.748;2022-12-18T02:55:55;-5.40;99.90
8888;DHT22;4480;52.370;9.748;2022-12-18T02:58:30;-5.40;99.90
8888;DHT22;4480;52.370;9.748;2022-12-18T03:01:02;-5.40;99.90
8888;DHT22;4480;52.370;9.748;2022-12-18T03:03:35;-5.40;99.90
8888;DHT22;4480;52.370;9.748;2022-12-18T03:06:06;-5.40;99.90
8888;DHT22;4480;52.370;9.748;2022-12-18T03:08:37;-5.50;99.90
8888;DHT22;4480;52.370;9.748;2022-12-18T03:11:07;-5.50;99.90
8888;DHT22;4480;52.370;9.748;2022-12-18T03:13:38;-5.50;99.90
8888;DHT22;4480;52.370;9.748;2022-12-18T03:16:09;-5.50;99.90
8888;DHT22;4480;52.370;9.748;2022-12-18T03:18:41;-5.50;99.90
8888;DHT22;4480;52.370;9.748;2022-12-18T03:21:10;-5.50;99.90
8888;DHT22;4480;52.370;9.748;2022-12-18T03:23:40;-5.50;99.90
8888;DHT22;4480;52.370;9.748;2022-12-18T03:26:12;-5.50;99.90
8888;DHT22;4480;52.370;9.748;2022-12-18T03:28:45;-5.50;99.90
8888;DHT22;4480;52.370;9.748;2022-12-18T03:31:14;-5.50;99.90
8888;DHT22;4480;52.370;9.748;2022-12-18T03:33:44;-5.50;99.90
8888;DHT22;4480;52.370;9.748;2022-12-18T03:36:12;-5.50;99.90
8888;DHT22;4480;52.370;9.748;2022-12-18T03:38:40;-5.50;99.90
8888;DHT22;4480;52.370;9.748;2022-12-18T03:41:11;-5.50;99.90
8888;DHT22;4480;52.370;9.748;2022-12-18T03:43:49;-5.50;99.90
8888;DHT22;4480;52.370;9.748;2022-12-18T03:46:23;-5.50;99.90
8888;DHT22;4480;52.370;9.748;2022-12-18T03:48:55;-5.50;99.90
8888;DHT22;4480;52.370;9.748;2022-12-18T03:51:27;-5.50;99.90
8888;DHT22;4480;52.370;9.748;2022-12-18T03:53:57;-5.50;99.90
8888;DHT22;4480;52.370;9.748;2022-12-18T03:56:28;-5.50;99.90
8888;DHT22;4480;52.370;9.748;2022-12-18T03:58:58;-5.50;99.90
8888;DHT22;4480;52.370;9.748;2022-12-18T04:01:31;-5.50;99.90
8888;DHT22;4480;52.370;9.748;2022-12-18T04:04:00;-5.60;99.90
8888;DHT22;4480;52.370;9.748;2022-12-18T04:06:28;-5.60;99.90
8888;DHT22;4480;52.370;9.748;2022-12-18T04:10:46;-5.60;99.90
8888;DHT22;4480;52.370;9.748;2022-12-18T04:13:21;-5.60;99.90
8888;DHT22;4480;52.370;9.748;2022-12-18T04:15:48;-5.70;99.90
8888;DHT22;4480;52.370;9.748;2022-12-18T04:18:15;-5.70;99.90
8888;DHT22;4480;52.370;9.748;2022-12-18T04:20:42;-5.70;99.90
8888;DHT22;4480;52.370;9.748;2022-12-18T04:23:08;-5.70;99.90
8888;DHT22;4480;52.370;9.748;2022-12-18T04:25:35;-5.70;99.90
8888;DHT22;4480;52.370;9.748;2022-12-18T04:28:03;-5.70;99.90
8888;DHT22;4480;52.370;9.748;2022-12-18T04:30:30;-5.70;99.90
8888;DHT22;4480;52.370;9.748;2022-12-18T04:32:57;-5.70;99.90
8888;DHT22;4480;52.370;9.748;2022-12-18T04:35:23;-5.70;99.90
8888;DHT22;4480;52.370;9.748;2022-12-18T04:37:50;-5.70;99.90
8888;DHT22;4480;52.370;9.748;2022-12-18T04:40:17;-5.70;99.90
8888;DHT22;4480;52.370;9.748;2022-12-18T04:42:44;-5.70;99.90
8888;DHT22;4480;52.370;9.748;2022-12-18T04:45:12;-5.70;99.90
8888;DHT22;4480;52.370;9.748;2022-12-18T04:47:39;-5.70;99.90
8888;DHT22;4480;52.370;9.748;2022-12-18T04:50:06;-5.70;99.90
8888;DHT22;4480;52.370;9.748;2022-12-18T04:52:33;-5.70;99.90
8888;DHT22;4480;52.370;9.748;2022-12-18T04:55:00;-5.70;99.90
8888;DHT22;4480;52.370;9.748;2022-12-18T04:57:26;-5.80;99.90
8888;DHT22;4480;52.370;9.748;2022-12-18T04:59:53;-5.80;99.90
8888;DHT22;4480;52.370;9.748;2022-12-18T05:02:21;-5.80;99.90
8888;DHT22;4480;52.370;9.748;2022-12-18T05:04:48;-5.80;99.90
8888;DHT22;4480;52.370;9.748;2022-12-18T05:07:15;-5.80;99.90
8888;DHT22;4480;52.370;9.748;2022-12-18T05:09:41;-5.80;99.90
8888;DHT22;4480;52.370;9.748;2022-12-18T05:12:08;-5.80;99.90
8888;DHT22;4480;52.370;9.748;2022-12-18T05:14:35;-5.80;99.90
8888;DHT22;4480;52.370;9.748;2022-12-18T05:17:01;-5.90;99.90
8888;DHT22;4480;52.370;9.748;2022-12-18T05:19:30;-5.90;99.90
8888;DHT22;4480;52.370;9.748;2022-12-18T05:21:56;-5.90;99.90
8888;DHT22;4480;52.370;9.748;2022-12-18T05:24:23;-5.90;99.90
8888;DHT22;4480;52.370;9.748;2022-12-18T05:26:50;-5.90;99.90
8888;DHT22;4480;52.370;9.748;2022-12-18T05:29:17;-5.90;99.90
8888;DHT22;4480;52.370;9.748;2022-12-18T05:31:43;-5.80;99.90
8888;DHT22;4480;52.370;9.748;2022-12-18T05:34:10;-5.80;99.90
8888;DHT22;4480;52.370;9.748;2022-12-18T05:36:38;-5.80;99.90
8888;DHT22;4480;52.370;9.748;2022-12-18T05:39:05;-5.80;99.90
8888;DHT22;4480;52.370;9.748;2022-12-18T05:41:32;-5.80;99.90
8888;DHT22;4480;52.370;9.748;2022-12-18T05:43:58;-5.80;99.90
8888;DHT22;4480;52.370;9.748;2022-12-18T05:46:25;-5.80;99.90
8888;DHT22;4480;52.370;9.748;2022-12-18T05:48:52;-5.80;99.90
8888;DHT22;4480;52.370;9.748;2022-12-18T05:51:21;-5.80;99.90
8888;DHT22;4480;52.370;9.748;2022-12-18T05:53:49;-5.80;99.90
8888;DHT22;4480;52.370;9.748;2022-12-18T05:56:17;-5.80;99.90
8888;DHT22;4480;52.370;9.748;2022-12-18T05:58:44;-5.70;99.90
8888;DHT22;4480;52.370;9.748;2022-12-18T06:01:14;-5.70;99.90
8888;DHT22;4480;52.370;9.748;2022-12-18T06:03:41;-5.70;99.90
8888;DHT22;4480;52.370;9.748;2022-12-18T06:06:15;-5.70;99.90
8888;DHT22;4480;52.370;9.748;2022-12-18T06:08:42;-5.70;99.90
8888;DHT22;4480;52.370;9.748;2022-12-18T06:11:10;-5.60;99.90
8888;DHT22;4480;52.370;9.748;2022-12-18T06:13:37;-5.60;99.90
8888;DHT22;4480;52.370;9.748;2022-12-18T06:16:04;-5.60;99.90
8888;DHT22;4480;52.370;9.748;2022-12-18T06:18:32;-5.60;99.90
8888;DHT22;4480;52.370;9.748;2022-12-18T06:20:59;-5.60;99.90
8888;DHT22;4480;52.370;9.748;2022-12-18T06:23:27;-5.60;99.90
8888;DHT22;4480;52.370;9.748;2022-12-18T06:25:54;-5.60;99.90
8888;DHT22;4480;52.370;9.748;2022-12-18T06:28:23;-5.60;99.90
8888;DHT22;4480;52.370;9.748;2022-12-18T06:30:50;-5.50;99.90
8888;DHT22;4480;52.370;9.748;2022-12-18T06:33:17;-5.50;99.90
8888;DHT22;4480;52.370;9.748;2022-12-18T06:35:43;-5.50;99.90
8888;DHT22;4480;52.370;9.748;2022-12-18T06:38:10;-5.50;99.90
8888;DHT22;4480;52.370;9.748;2022-12-18T06:40:37;-5.50;99.90
8888;DHT22;4480;52.370;9.748;2022-12-18T06:43:05;-5.60;99.90
8888;DHT22;4480;52.370;9.748;2022-12-18T06:45:33;-5.60;99.90
8888;DHT22;4480;52.370;9.748;2022-12-18T06:47:59;-5.50;99.90
8888;DHT22;4480;52.370;9.748;2022-12-18T06:50:26;-5.50;99.90
8888;DHT22;4480;52.370;9.748;2022-12-18T06:52:53;-5.50;99.90
8888;DHT22;4480;52.370;9.748;2022-12-18T06:55:20;-5.40;99.90
8888;DHT22;4480;52.370;9.748;2022-12-18T06:57:46;-5.40;99.90
8888;DHT22;4480;52.370;9.748;2022-12-18T07:00:14;-5.40;99.90
8888;DHT22;4480;52.370;9.748;2022-12-18T07:02:42;-5.40;99.90
8888;DHT22;4480;52.370;9.748;2022-12-18T07:05:09;-5.40;99.90
8888;DHT22;4480;52.370;9.748;2022-12-18T07:07:35;-5.40;99.90
8888;DHT22;4480;52.370;9.748;2022-12-18T07:10:03;-5.40;99.90
8888;DHT22;4480;52.370;9.748;2022-12-18T07:12:29;-5.40;99.90
8888;DHT22;4480;52.370;9.748;2022-12-18T07:14:56;-5.50;99.90
8888;DHT22;4480;52.370;9.748;2022-12-18T07:17:23;-5.40;99.90
8888;DHT22;4480;52.370;9.748;2022-12-18T07:19:51;-5.40;99.90
8888;DHT22;4480;52.370;9.748;2022-12-18T07:22:18;-5.50;99.90
8888;DHT22;4480;52.370;9.748;2022-12-18T07:24:45;-5.50;99.90
8888;DHT22;4480;52.370;9.748;2022-12-18T07:27:11;-5.50;99.90
8888;DHT22;4480;52.370;9.748;2022-12-18T07:29:38;-5.50;99.90
8888;DHT22;4480;52.370;9.748;2022-12-18T07:32:05;-5.50;99.90
8888;DHT22;4480;52.370;9.748;2022-12-18T07:34:32;-5.50;99.90
8888;DHT22;4480;52.370;9.748;2022-12-18T07:37:00;-5.50;99.90
8888;DHT22;4480;52.370;9.748;2022-12-18T07:39:27;-5.40;99.90
8888;DHT22;4480;52.370;9.748;2022-12-18T07:41:54;-5.40;99.90
8888;DHT22;4480;52.370;9.748;2022-12-18T07:44:34;-5.40;99.90
8888;DHT22;4480;52.370;9.748;2022-12-18T07:47:01;-5.40;99.90
8888;DHT22;4480;52.370;9.748;2022-12-18T07:49:28;-5.30;99.90
8888;DHT22;4480;52.370;9.748;2022-12-18T07:51:55;-5.30;99.90
8888;DHT22;4480;52.370;9.748;2022-12-18T07:54:24;-5.30;99.90
8888;DHT22;4480;52.370;9.748;2022-12-18T07:56:51;-5.20;99.90
8888;DHT22;4480;52.370;9.748;2022-12-18T07:59:18;-5.20;99.90
8888;DHT22;4480;52.370;9.748;2022-12-18T08:01:45;-5.10;99.90
8888;DHT22;4480;52.370;9.748;2022-12-18T08:04:11;-5.10;99.90
8888;DHT22;4480;52.370;9.748;2022-12-18T08:06:38;-5.10;99.90
8888;DHT22;4480;52.370;9.748;2022-12-18T08:09:05;-5.00;99.90
8888;DHT22;4480;52.370;9.748;2022-12-18T08:11:34;-4.90;99.90
8888;DHT22;4480;52.370;9.748;2022-12-18T08:14:01;-4.90;99.90
8888;DHT22;4480;52.370;9.748;2022-12-18T08:16:28;-4.90;99.90
8888;DHT22;4480;52.370;9.748;2022-12-18T08:18:55;-4.80;99.90
8888;DHT22;4480;52.370;9.748;2022-12-18T08:21:25;-4.80;99.90
8888;DHT22;4480;52.370;9.748;2022-12-18T08:23:53;-4.80;99.90
8888;DHT22;4480;52.370;9.748;2022-12-18T08:26:21;-4.80;99.90
8888;DHT22;4480;52.370;9.748;2022-12-18T08:28:49;-4.80;99.90
8888;DHT22;4480;52.370;9.748;2022-12-18T08:31:17;-4.80;99.90
8888;DHT22;4480;52.370;9.748;2022-12-18T08:33:44;-4.70;99.90
8888;DHT22;4480;52.370;9.748;2022-12-18T08:36:10;-4.70;99.90
8888;DHT22;4480;52.370;9.748;2022-12-18T08:38:37;-4.60;99.90
8888;DHT22;4480;52.370;9.748;2022-12-18T08:41:05;-4.60;99.90
8888;DHT22;4480;52.370;9.748;2022-12-18T08:43:32;-4.50;99.90
8888;DHT22;4480;52.370;9.748;2022-12-18T08:46:18;-4.50;99.90
8888;DHT22;4480;52.370;9.748;2022-12-18T08:48:46;-4.40;99.90
8888;DHT22;4480;52.370;9.748;2022-12-18T08:51:15;-4.40;99.90
8888;DHT22;4480;52.370;9.748;2022-12-18T08:53:42;-4.30;99.90
8888;DHT22;4480;52.370;9.748;2022-12-18T08:56:09;-4.20;99.90
8888;DHT22;4480;52.370;9.748;2022-12-18T08:58:36;-4.20;99.90
8888;DHT22;4480;52.370;9.748;2022-12-18T09:01:05;-4.10;99.90
8888;DHT22;4480;52.370;9.748;2022-12-18T09:03:33;-4.10;99.90
8888;DHT22;4480;52.370;9.748;2022-12-18T09:06:00;-4.00;99.90
8888;DHT22;4480;52.370;9.748;2022-12-18T09:08:27;-4.00;99.90
8888;DHT22;4480;52.370;9.748;2022-12-18T09:10:54;-3.90;99.90
8888;DHT22;4480;52.370;9.748;2022-12-18T09:13:21;-3.80;99.90
8888;DHT22;4480;52.370;9.748;2022-12-18T09:15:50;-3.70;99.90
8888;DHT22;4480;52.370;9.748;2022-12-18T09:18:18;-3.60;99.90
8888;DHT22;4480;52.370;9.748;2022-12-18T09:20:46;-3.50;99.90
8888;DHT22;4480;52.370;9.748;2022-12-18T09:23:14;-3.40;99.90
8888;DHT22;4480;52.370;9.748;2022-12-18T09:25:41;-3.30;99.90
8888;DHT22;4480;52.370;9.748;2022-12-18T09:28:15;-3.20;99.90
8888;DHT22;4480;52.370;9.748;2022-12-18T09:30:44;-3.10;99.90
8888;DHT22;4480;52.370;9.748;2022-12-18T09:33:12;-3.00;99.90
8888;DHT22;4480;52.370;9.748;2022-12-18T09:35:39;-2.90;99.90
8888;DHT22;4480;52.370;9.748;2022-12-18T09:38:08;-2.80;99.90
8888;DHT22;4480;52.370;9.748;2022-12-18T09:40:41;-2.70;99.90
8888;DHT22;4480;52.370;9.748;2022-12-18T09:43:14;-2.70;99.90
8888;DHT22;4480;52.370;9.748;2022-12-18T09:45:45;-2.50;99.90
8888;DHT22;4480;52.370;9.748;2022-12-18T09:48:18;-2.40;99.90
8888;DHT22;4480;52.370;9.748;2022-12-18T09:50:46;-2.30;99.90
8888;DHT22;4480;52.370;9.748;2022-12-18T09:53:19;-2.20;99.90
8888;DHT22;4480;52.370;9.748;2022-12-18T09:55:48;-2.00;99.90
8888;DHT22;4480;52.370;9.748;2022-12-18T09:58:19;-1.90;99.90
8888;DHT22;4480;52.370;9.748;2022-12-18T10:00:47;-1.80;99.30
8888;DHT22;4480;52.370;9.748;2022-12-18T10:03:14;-1.70;99.10
8888;DHT22;4480;52.370;9.748;2022-12-18T10:05:49;-1.60;99.10
8888;DHT22;4480;52.370;9.748;2022-12-18T10:08:27;-1.50;98.70
8888;DHT22;4480;52.370;9.748;2022-12-18T10:10:59;-1.40;98.40
8888;DHT22;4480;52.370;9.748;2022-12-18T10:13:33;-1.30;98.00
8888;DHT22;4480;52.370;9.748;2022-12-18T10:16:09;-1.20;97.80
8888;DHT22;4480;52.370;9.748;2022-12-18T10:18:55;-1.20;97.30
8888;DHT22;4480;52.370;9.748;2022-12-18T10:21:28;-1.10;96.50
8888;DHT22;4480;52.370;9.748;2022-12-18T10:24:03;-1.10;95.50
8888;DHT22;4480;52.370;9.748;2022-12-18T10:26:36;-1.00;95.30
8888;DHT22;4480;52.370;9.748;2022-12-18T10:29:08;-0.90;95.70
8888;DHT22;4480;52.370;9.748;2022-12-18T10:31:37;-0.80;95.50
8888;DHT22;4480;52.370;9.748;2022-12-18T10:34:04;-0.70;95.20
8888;DHT22;4480;52.370;9.748;2022-12-18T10:36:31;-0.60;95.00
8888;DHT22;4480;52.370;9.748;2022-12-18T10:39:14;-0.50;94.80
8888;DHT22;4480;52.370;9.748;2022-12-18T10:41:42;-0.40;94.80
8888;DHT22;4480;52.370;9.748;2022-12-18T10:44:16;-0.40;94.50
8888;DHT22;4480;52.370;9.748;2022-12-18T10:46:44;-0.30;94.20
8888;DHT22;4480;52.370;9.748;2022-12-18T10:49:21;-0.30;94.00
8888;DHT22;4480;52.370;9.748;2022-12-18T10:51:48;-0.20;94.00
8888;DHT22;4480;52.370;9.748;2022-12-18T10:54:18;-0.20;94.00
8888;DHT22;4480;52.370;9.748;2022-12-18T10:56:45;-0.10;94.00
8888;DHT22;4480;52.370;9.748;2022-12-18T10:59:14;0.00;94.20
8888;DHT22;4480;52.370;9.748;2022-12-18T11:01:49;0.10;94.10
8888;DHT22;4480;52.370;9.748;2022-12-18T11:04:19;0.10;94.00
8888;DHT22;4480;52.370;9.748;2022-12-18T11:06:55;0.20;93.80
8888;DHT22;4480;52.370;9.748;2022-12-18T11:09:25;0.20;93.50
8888;DHT22;4480;52.370;9.748;2022-12-18T11:11:53;0.30;93.60
8888;DHT22;4480;52.370;9.748;2022-12-18T11:14:23;0.30;93.80
8888;DHT22;4480;52.370;9.748;2022-12-18T11:16:51;0.40;93.80
8888;DHT22;4480;52.370;9.748;2022-12-18T11:19:28;0.50;93.60
8888;DHT22;4480;52.370;9.748;2022-12-18T11:21:56;0.60;93.40
8888;DHT22;4480;52.370;9.748;2022-12-18T11:24:28;0.60;93.00
8888;DHT22;4480;52.370;9.748;2022-12-18T11:26:56;0.70;93.00
8888;DHT22;4480;52.370;9.748;2022-12-18T11:29:30;0.80;92.70
8888;DHT22;4480;52.370;9.748;2022-12-18T11:32:19;0.80;92.20
8888;DHT22;4480;52.370;9.748;2022-12-18T11:34:50;0.80;91.70
8888;DHT22;4480;52.370;9.748;2022-12-18T11:37:18;0.90;91.40
8888;DHT22;4480;52.370;9.748;2022-12-18T11:39:51;0.90;91.10
8888;DHT22;4480;52.370;9.748;2022-12-18T11:42:23;1.00;90.70
8888;DHT22;4480;52.370;9.748;2022-12-18T11:44:54;1.10;90.80
8888;DHT22;4480;52.370;9.748;2022-12-18T11:47:27;1.20;90.80
8888;DHT22;4480;52.370;9.748;2022-12-18T11:49:56;1.20;90.30
8888;DHT22;4480;52.370;9.748;2022-12-18T11:52:28;1.10;90.10
8888;DHT22;4480;52.370;9.748;2022-12-18T11:55:04;1.20;89.50
8888;DHT22;4480;52.370;9.748;2022-12-18T11:57:36;1.20;89.60
8888;DHT22;4480;52.370;9.748;2022-12-18T12:00:12;1.20;88.70
8888;DHT22;4480;52.370;9.748;2022-12-18T12:03:01;1.20;88.20
8888;DHT22;4480;52.370;9.748;2022-12-18T12:05:42;1.10;88.20
8888;DHT22;4480;52.370;9.748;2022-12-18T12:08:17;1.00;87.60
8888;DHT22;4480;52.370;9.748;2022-12-18T12:10:55;1.00;88.10
8888;DHT22;4480;52.370;9.748;2022-12-18T12:13:38;1.00;87.80
8888;DHT22;4480;52.370;9.748;2022-12-18T12:16:15;1.00;87.40
8888;DHT22;4480;52.370;9.748;2022-12-18T12:19:00;0.90;87.50
8888;DHT22;4480;52.370;9.748;2022-12-18T12:21:37;0.80;87.70
8888;DHT22;4480;52.370;9.748;2022-12-18T12:24:23;0.80;87.80
8888;DHT22;4480;52.370;9.748;2022-12-18T12:27:00;0.70;87.80
8888;DHT22;4480;52.370;9.748;2022-12-18T12:29:41;0.60;88.10
8888;DHT22;4480;52.370;9.748;2022-12-18T12:32:22;0.50;88.30
8888;DHT22;4480;52.370;9.748;2022-12-18T12:35:03;0.50;88.30
8888;DHT22;4480;52.370;9.748;2022-12-18T12:37:40;0.50;88.50
8888;DHT22;4480;52.370;9.748;2022-12-18T12:40:13;0.50;88.60
8888;DHT22;4480;52.370;9.748;2022-12-18T12:42:46;0.50;88.20
8888;DHT22;4480;52.370;9.748;2022-12-18T12:45:36;0.50;88.00
8888;DHT22;4480;52.370;9.748;2022-12-18T12:48:07;0.50;87.70
8888;DHT22;4480;52.370;9.748;2022-12-18T12:50:37;0.40;87.40
8888;DHT22;4480;52.370;9.748;2022-12-18T12:53:08;0.40;87.40
8888;DHT22;4480;52.370;9.748;2022-12-18T12:55:36;0.40;87.60
8888;DHT22;4480;52.370;9.748;2022-12-18T12:58:14;0.40;87.70
8888;DHT22;4480;52.370;9.748;2022-12-18T13:00:46;0.40;87.80
8888;DHT22;4480;52.370;9.748;2022-12-18T13:03:28;0.30;88.20
8888;DHT22;4480;52.370;9.748;2022-12-18T13:06:04;0.30;88.60
8888;DHT22;4480;52.370;9.748;2022-12-18T13:08:52;0.30;89.00
8888;DHT22;4480;52.370;9.748;2022-12-18T13:11:30;0.30;89.10
8888;DHT22;4480;52.370;9.748;2022-12-18T13:14:23;0.30;88.80
8888;DHT22;4480;52.370;9.748;2022-12-18T13:16:50;0.30;89.10
8888;DHT22;4480;52.370;9.748;2022-12-18T13:19:22;0.30;89.20
8888;DHT22;4480;52.370;9.748;2022-12-18T13:21:53;0.30;89.30
8888;DHT22;4480;52.370;9.748;2022-12-18T13:24:25;0.20;89.80
8888;DHT22;4480;52.370;9.748;2022-12-18T13:26:53;0.10;89.40
8888;DHT22;4480;52.370;9.748;2022-12-18T13:29:43;0.10;89.50
8888;DHT22;4480;52.370;9.748;2022-12-18T13:32:20;0.00;90.00
8888;DHT22;4480;52.370;9.748;2022-12-18T13:34:47;-0.10;90.20
8888;DHT22;4480;52.370;9.748;2022-12-18T13:37:38;-0.10;90.60
8888;DHT22;4480;52.370;9.748;2022-12-18T13:43:21;-0.20;90.90
8888;DHT22;4480;52.370;9.748;2022-12-18T13:46:00;-0.20;91.00
8888;DHT22;4480;52.370;9.748;2022-12-18T13:48:30;-0.20;91.20
8888;DHT22;4480;52.370;9.748;2022-12-18T13:51:00;-0.30;91.20
8888;DHT22;4480;52.370;9.748;2022-12-18T13:53:33;-0.40;91.20
8888;DHT22;4480;52.370;9.748;2022-12-18T13:56:00;-0.40;91.40
8888;DHT22;4480;52.370;9.748;2022-12-18T13:58:28;-0.40;91.50
8888;DHT22;4480;52.370;9.748;2022-12-18T14:00:56;-0.50;91.50
8888;DHT22;4480;52.370;9.748;2022-12-18T14:03:26;-0.50;91.50
8888;DHT22;4480;52.370;9.748;2022-12-18T14:05:56;-0.50;91.50
8888;DHT22;4480;52.370;9.748;2022-12-18T14:08:27;-0.60;91.50
8888;DHT22;4480;52.370;9.748;2022-12-18T14:10:56;-0.60;91.40
8888;DHT22;4480;52.370;9.748;2022-12-18T14:13:28;-0.70;91.50
8888;DHT22;4480;52.370;9.748;2022-12-18T14:15:57;-0.80;91.70
8888;DHT22;4480;52.370;9.748;2022-12-18T14:18:29;-0.90;92.00
8888;DHT22;4480;52.370;9.748;2022-12-18T14:20:59;-0.90;92.60
8888;DHT22;4480;52.370;9.748;2022-12-18T14:23:29;-1.00;92.70
8888;DHT22;4480;52.370;9.748;2022-12-18T14:25:57;-1.00;92.90
8888;DHT22;4480;52.370;9.748;2022-12-18T14:28:23;-1.10;93.10
8888;DHT22;4480;52.370;9.748;2022-12-18T14:30:52;-1.20;93.30
8888;DHT22;4480;52.370;9.748;2022-12-18T14:33:23;-1.20;93.70
8888;DHT22;4480;52.370;9.748;2022-12-18T14:35:56;-1.30;93.80
8888;DHT22;4480;52.370;9.748;2022-12-18T14:38:26;-1.30;94.00
8888;DHT22;4480;52.370;9.748;2022-12-18T14:40:55;-1.40;94.10
8888;DHT22;4480;52.370;9.748;2022-12-18T14:43:22;-1.50;94.30
8888;DHT22;4480;52.370;9.748;2022-12-18T14:45:50;-1.50;94.60
8888;DHT22;4480;52.370;9.748;2022-12-18T14:48:19;-1.60;94.80
8888;DHT22;4480;52.370;9.748;2022-12-18T14:50:57;-1.60;95.10
8888;DHT22;4480;52.370;9.748;2022-12-18T14:53:36;-1.70;95.40
8888;DHT22;4480;52.370;9.748;2022-12-18T14:56:13;-1.70;95.60
8888;DHT22;4480;52.370;9.748;2022-12-18T14:58:45;-1.70;95.90
8888;DHT22;4480;52.370;9.748;2022-12-18T15:01:19;-1.70;96.20
8888;DHT22;4480;52.370;9.748;2022-12-18T15:03:46;-1.80;96.40
8888;DHT22;4480;52.370;9.748;2022-12-18T15:06:23;-1.80;96.50
8888;DHT22;4480;52.370;9.748;2022-12-18T15:08:51;-1.80;96.90
8888;DHT22;4480;52.370;9.748;2022-12-18T15:11:46;-1.80;97.00
8888;DHT22;4480;52.370;9.748;2022-12-18T15:14:23;-1.90;97.20
8888;DHT22;4480;52.370;9.748;2022-12-18T15:16:52;-1.90;97.30
8888;DHT22;4480;52.370;9.748;2022-12-18T15:19:20;-1.90;97.50
8888;DHT22;4480;52.370;9.748;2022-12-18T15:21:49;-1.90;97.60
8888;DHT22;4480;52.370;9.748;2022-12-18T15:24:18;-1.90;97.60
8888;DHT22;4480;52.370;9.748;2022-12-18T15:26:47;-1.90;97.80
8888;DHT22;4480;52.370;9.748;2022-12-18T15:29:22;-1.90;98.00
8888;DHT22;4480;52.370;9.748;2022-12-18T15:32:02;-1.90;98.00
8888;DHT22;4480;52.370;9.748;2022-12-18T15:34:30;-2.00;97.90
8888;DHT22;4480;52.370;9.748;2022-12-18T15:36:58;-2.00;98.10
8888;DHT22;4480;52.370;9.748;2022-12-18T15:39:25;-2.00;98.30
8888;DHT22;4480;52.370;9.748;2022-12-18T15:41:52;-2.10;98.50
8888;DHT22;4480;52.370;9.748;2022-12-18T15:44:36;-2.10;98.70
8888;DHT22;4480;52.370;9.748;2022-12-18T15:47:04;-2.10;98.90
8888;DHT22;4480;52.370;9.748;2022-12-18T15:49:34;-2.10;99.10
8888;DHT22;4480;52.370;9.748;2022-12-18T15:52:03;-2.10;99.30
8888;DHT22;4480;52.370;9.748;2022-12-18T15:54:30;-2.10;99.50
8888;DHT22;4480;52.370;9.748;2022-12-18T15:57:15;-2.20;99.50
8888;DHT22;4480;52.370;9.748;2022-12-18T15:59:52;-2.20;99.60
8888;DHT22;4480;52.370;9.748;2022-12-18T16:02:21;-2.20;99.70
8888;DHT22;4480;52.370;9.748;2022-12-18T16:04:50;-2.20;99.70
8888;DHT22;4480;52.370;9.748;2022-12-18T16:07:18;-2.20;99.80
8888;DHT22;4480;52.370;9.748;2022-12-18T16:09:48;-2.20;99.80
8888;DHT22;4480;52.370;9.748;2022-12-18T16:12:17;-2.20;99.80
8888;DHT22;4480;52.370;9.748;2022-12-18T16:14:45;-2.30;99.90
8888;DHT22;4480;52.370;9.748;2022-12-18T16:17:13;-2.20;99.90
8888;DHT22;4480;52.370;9.748;2022-12-18T16:19:43;-2.20;99.90
8888;DHT22;4480;52.370;9.748;2022-12-18T16:22:20;-2.10;99.90
8888;DHT22;4480;52.370;9.748;2022-12-18T16:24:48;-2.10;99.90
8888;DHT22;4480;52.370;9.748;2022-12-18T16:27:15;-2.10;99.90
8888;DHT22;4480;52.370;9.748;2022-12-18T16:29:41;-2.10;99.90
8888;DHT22;4480;52.370;9.748;2022-12-18T16:32:11;-2.00;99.90